createdAt,value
2023-03-07T01:46:23.048Z,34.70
2023-03-07T01:52:28.724Z,33.90
2023-03-07T02:10:03.135Z,34.20
2023-03-07T02:12:43.406Z,33.30
2023-03-07T02:16:24.668Z,32.90
2023-03-07T02:18:54.843Z,34.10
2023-03-07T02:21:36.484Z,32.50
2023-03-07T02:24:11.922Z,32.40
2023-03-07T02:27:20.207Z,33.30
2023-03-07T02:29:50.341Z,33.20
2023-03-07T02:32:20.508Z,33.60
2023-03-07T02:34:50.753Z,33.40
2023-03-07T02:37:27.011Z,34.00
2023-03-07T02:39:58.003Z,33.30
2023-03-07T02:42:32.507Z,35.00
2023-03-07T06:03:42.363Z,31.60
2023-03-07T06:06:12.342Z,30.60
2023-03-07T06:08:41.893Z,31.00
2023-03-07T06:11:11.915Z,31.50
2023-03-07T06:13:41.661Z,31.20
2023-03-07T06:16:56.922Z,31.70
2023-03-07T06:19:26.527Z,32.90
2023-03-07T06:21:55.858Z,32.30
2023-03-07T06:24:28.241Z,32.40
2023-03-07T06:26:57.632Z,32.60
2023-03-07T06:29:26.975Z,33.00
2023-03-07T06:31:56.303Z,32.40
2023-03-07T06:34:25.717Z,32.70
2023-03-07T06:36:55.101Z,32.30
2023-03-07T06:39:24.589Z,32.80
2023-03-07T06:41:54.144Z,33.00
2023-03-07T06:44:23.586Z,33.00
2023-03-07T06:46:52.961Z,33.70
2023-03-07T06:49:22.424Z,33.70
2023-03-07T06:51:58.687Z,33.00
2023-03-07T06:55:02.719Z,33.00
2023-03-07T06:57:35.025Z,33.10
2023-03-07T07:00:08.864Z,32.80
2023-03-07T07:57:14.797Z,30.80
2023-03-07T07:59:46.679Z,31.30
2023-03-07T08:02:16.456Z,30.90
2023-03-07T08:04:52.790Z,30.60
2023-03-07T08:07:22.135Z,31.70
2023-03-07T08:09:51.530Z,31.90
2023-03-07T08:12:21.040Z,31.50
2023-03-07T08:14:50.623Z,31.40
2023-03-07T08:17:20.039Z,32.00
2023-03-07T08:19:50.424Z,31.90
2023-03-07T08:22:21.489Z,32.60
2023-03-07T08:24:52.690Z,32.30
2023-03-07T08:27:22.058Z,33.30
2023-03-07T08:29:51.458Z,32.40
2023-03-07T08:32:21.029Z,32.70
2023-03-07T08:34:51.866Z,33.30
2023-03-07T08:37:21.627Z,34.00
2023-03-07T08:39:52.217Z,32.90
2023-03-07T08:42:21.997Z,33.20
2023-03-07T08:44:52.285Z,33.60
2023-03-07T08:47:21.626Z,33.90
2023-03-07T08:49:52.166Z,34.00
2023-03-07T08:52:21.639Z,33.70
2023-03-07T08:54:51.060Z,33.20
2023-03-07T08:57:20.678Z,33.80
2023-03-07T08:59:50.450Z,33.70
2023-03-07T09:02:20.511Z,33.80
2023-03-07T09:04:50.128Z,34.50
2023-03-07T09:07:21.006Z,34.70
2023-03-07T09:09:51.591Z,34.60
2023-03-07T09:12:21.110Z,34.30
2023-03-07T09:14:50.457Z,34.50
2023-03-07T09:17:20.679Z,34.60
2023-03-07T09:19:53.945Z,34.80
2023-03-07T09:22:24.414Z,34.10
2023-03-07T09:24:53.953Z,34.70
2023-03-07T09:27:24.627Z,34.90
2023-03-07T09:29:54.014Z,35.40
2023-03-07T09:32:23.430Z,35.70
2023-03-07T09:34:54.171Z,36.40
2023-03-07T09:37:23.528Z,35.70
2023-03-07T09:39:52.950Z,36.50
2023-03-07T09:42:41.900Z,35.80
2023-03-07T09:45:11.214Z,35.70
2023-03-07T09:47:46.853Z,36.30
2023-03-07T09:50:18.266Z,36.50
2023-03-07T09:52:48.364Z,36.80
2023-03-07T09:55:20.316Z,36.50
2023-03-07T09:57:53.097Z,36.30
2023-03-07T10:00:33.472Z,37.40
2023-03-07T10:03:26.044Z,35.70
2023-03-07T10:05:58.842Z,36.90
2023-03-07T10:08:34.924Z,36.80
2023-03-07T10:11:13.238Z,36.90
2023-03-07T10:14:11.654Z,36.90
2023-03-07T10:16:41.084Z,36.20
2023-03-07T10:19:16.890Z,37.20
2023-03-07T10:21:53.402Z,36.50
2023-03-07T10:24:32.251Z,37.20
2023-03-07T10:27:08.149Z,36.70
2023-03-07T10:29:57.546Z,36.90
2023-03-07T10:32:31.356Z,36.60
2023-03-07T10:35:05.333Z,36.30
2023-03-07T10:37:43.153Z,36.30
2023-03-07T10:40:35.608Z,36.70
2023-03-07T10:43:07.275Z,36.40
2023-03-07T10:45:37.518Z,36.40
2023-03-07T10:48:11.868Z,36.60
2023-03-07T10:51:05.568Z,36.30
2023-03-07T10:53:37.583Z,36.40
2023-03-07T10:56:19.039Z,35.80
2023-03-07T10:59:07.125Z,36.30
2023-03-07T11:01:38.171Z,37.20
2023-03-07T11:04:23.135Z,36.30
2023-03-07T11:07:00.567Z,36.30
2023-03-07T11:09:32.036Z,36.40
2023-03-07T11:12:08.530Z,36.40
2023-03-07T11:14:50.087Z,36.60
2023-03-07T11:17:24.676Z,36.60
2023-03-07T11:19:57.458Z,36.50
2023-03-07T11:22:27.174Z,36.40
2023-03-07T11:24:58.639Z,36.60
2023-03-07T11:27:36.935Z,36.60
2023-03-07T11:30:20.202Z,36.60
2023-03-07T11:32:54.618Z,36.50
2023-03-07T11:35:25.557Z,36.70
2023-03-07T11:38:00.685Z,36.70
2023-03-07T11:40:42.105Z,36.70
2023-03-07T11:43:24.581Z,37.00
2023-03-07T11:46:09.459Z,36.70
2023-03-07T11:48:50.804Z,36.90
2023-03-07T11:51:29.252Z,36.50
2023-03-07T11:54:15.299Z,36.90
2023-03-07T13:23:30.966Z,40.30
2023-03-07T13:26:12.325Z,40.40
2023-03-07T13:28:44.188Z,40.70
2023-03-07T13:31:19.658Z,40.60
2023-03-07T13:33:49.637Z,41.00
2023-03-07T13:36:34.300Z,41.30
2023-03-07T13:39:03.954Z,41.50
2023-03-07T13:41:46.860Z,41.80
2023-03-07T13:44:32.246Z,41.60
2023-03-07T13:47:04.184Z,41.80
2023-03-07T13:49:41.896Z,42.00
2023-03-07T13:52:19.429Z,42.00
2023-03-07T13:54:49.485Z,42.10
2023-03-07T13:57:19.689Z,42.30
2023-03-07T13:59:52.422Z,42.50
2023-03-07T14:02:23.589Z,42.60
2023-03-07T14:04:57.007Z,42.80
2023-03-07T14:07:28.398Z,43.00
2023-03-07T14:10:05.440Z,43.00
2023-03-07T14:12:59.981Z,43.20
2023-03-07T14:15:42.250Z,43.10
2023-03-07T14:18:27.099Z,43.40
2023-03-07T16:06:31.794Z,46.20
2023-03-07T16:09:01.312Z,46.10
2023-03-07T16:11:30.670Z,46.00
2023-03-07T16:14:00.798Z,46.00
2023-03-07T16:16:31.298Z,46.00
2023-03-07T16:19:01.716Z,46.10
2023-03-07T16:21:31.087Z,46.00
2023-03-07T16:24:00.448Z,46.10
2023-03-07T16:26:31.245Z,46.20
2023-03-07T16:29:01.823Z,46.40
2023-03-07T16:31:31.296Z,46.10
2023-03-07T16:34:03.145Z,46.10
2023-03-07T16:36:33.143Z,46.10
2023-03-07T16:39:02.521Z,46.50
2023-03-07T16:41:31.962Z,46.60
2023-03-07T16:44:01.384Z,46.50
2023-03-07T16:46:31.434Z,46.80
2023-03-07T16:49:00.951Z,46.90
2023-03-07T16:51:32.009Z,47.00
2023-03-07T16:54:01.900Z,47.10
2023-03-07T16:56:34.003Z,47.30
2023-03-07T16:59:03.916Z,47.30
2023-03-07T17:01:33.391Z,47.40
2023-03-07T20:04:01.427Z,50.70
2023-03-07T20:06:31.743Z,51.00
2023-03-07T20:09:02.551Z,51.10
2023-03-07T20:11:33.066Z,51.00
2023-03-07T20:14:03.839Z,51.10
2023-03-07T20:16:34.867Z,51.10
2023-03-07T20:19:11.659Z,51.10
2023-03-07T20:21:42.189Z,51.00
2023-03-07T20:24:11.552Z,50.80
2023-03-07T20:26:41.390Z,51.10
2023-03-07T20:29:11.405Z,51.20
2023-03-07T20:31:42.290Z,51.50
2023-03-07T20:34:12.881Z,51.30
2023-03-07T20:36:42.760Z,51.50
2023-03-07T20:39:16.110Z,51.60
2023-03-07T20:41:46.085Z,51.70
2023-03-07T20:44:16.635Z,51.90
2023-03-07T20:46:46.236Z,51.80
2023-03-07T20:49:16.047Z,51.80
2023-03-07T20:51:45.609Z,52.10
2023-03-07T20:54:16.238Z,51.50
2023-03-07T20:56:46.791Z,51.90
2023-03-07T20:59:18.039Z,51.90
2023-03-07T21:01:47.522Z,52.20
2023-03-07T21:50:48.828Z,49.80
2023-03-07T21:53:21.684Z,50.70
2023-03-07T21:55:57.732Z,50.20
2023-03-07T21:58:27.376Z,49.80
2023-03-07T22:00:58.171Z,50.00
2023-03-07T22:03:28.552Z,49.90
2023-03-07T22:05:58.254Z,50.00
2023-03-07T22:08:27.613Z,50.00
2023-03-07T22:11:02.029Z,49.70
2023-03-07T22:13:35.324Z,49.50
2023-03-07T22:16:06.212Z,48.90
2023-03-07T22:18:36.897Z,48.70
2023-03-07T22:21:10.541Z,48.70
2023-03-07T22:23:39.950Z,48.60
2023-03-07T22:26:10.385Z,48.60
2023-03-07T22:28:40.049Z,47.80
2023-03-07T22:31:11.488Z,47.30
2023-03-07T22:33:41.593Z,46.80
2023-03-07T22:36:14.019Z,47.20
2023-03-07T22:38:44.487Z,45.80
2023-03-07T22:41:15.513Z,46.40
2023-03-07T22:43:45.349Z,46.80
2023-03-07T22:46:15.098Z,46.00
2023-03-07T22:48:49.445Z,45.20
